Time;durP1;ratioP1;P1;durP2;ratioP2;P2;SDS_P1;SDS_P2;PMS_P1;PMS_P2;Temp;Humidity;BMP_temperature;BMP_pressure;BME280_temperature;BME280_humidity;BME280_pressure;Samples;Min_cycle;Max_cycle;Signal;HPM_P1;HPM_P2
2023/09/05 00:01:12;;;;;;;3.35;1.38;;;;;;;27.06;38.07;101630.53;5073758;28;20064;-63
2023/09/05 00:03:38;;;;;;;1.98;1.55;;;;;;;26.92;38.19;101628.88;5072524;28;20265;-62
2023/09/05 00:06:10;;;;;;;3.75;2.00;;;;;;;26.82;38.49;101633.16;5073650;28;20503;-62
2023/09/05 00:08:36;;;;;;;1.80;1.13;;;;;;;26.68;38.01;101631.47;5056370;28;20043;-62
2023/09/05 00:11:01;;;;;;;2.00;1.15;;;;;;;26.56;38.32;101634.88;5072114;28;20035;-61
2023/09/05 00:13:27;;;;;;;2.35;1.48;;;;;;;26.45;38.42;101629.19;5073523;28;20032;-62
2023/09/05 00:15:53;;;;;;;1.85;1.25;;;;;;;26.42;38.84;101626.88;5071766;28;20097;-62
2023/09/05 00:18:18;;;;;;;2.03;1.13;;;;;;;26.34;38.66;101625.19;5073307;28;20028;-61
2023/09/05 00:20:45;;;;;;;2.78;2.30;;;;;;;26.24;39.09;101623.94;5073434;28;20491;-62
2023/09/05 00:23:10;;;;;;;1.88;1.25;;;;;;;26.19;38.72;101631.94;5071836;28;20029;-62
2023/09/05 00:25:35;;;;;;;2.38;1.58;;;;;;;26.12;39.51;101640.16;5055163;28;20031;-61
2023/09/05 00:28:03;;;;;;;2.38;1.38;;;;;;;26.03;39.46;101634.03;5071866;28;20403;-62
2023/09/05 00:30:29;;;;;;;4.80;1.40;;;;;;;25.96;39.58;101635.94;5073294;28;20124;-62
2023/09/05 00:32:56;;;;;;;3.33;1.40;;;;;;;25.88;39.94;101630.63;5071914;28;20585;-62
2023/09/05 00:35:21;;;;;;;5.05;1.40;;;;;;;25.82;39.45;101631.50;5073077;28;20032;-61
2023/09/05 00:37:47;;;;;;;2.92;1.30;;;;;;;25.76;40.43;101623.25;5071708;28;20025;-61
2023/09/05 00:40:12;;;;;;;3.38;1.35;;;;;;;25.69;39.93;101630.59;5055031;28;20028;-62
2023/09/05 00:42:38;;;;;;;3.70;1.65;;;;;;;25.64;39.88;101622.16;5071804;28;20115;-61
2023/09/05 00:45:05;;;;;;;3.30;1.23;;;;;;;25.58;40.25;101623.00;5071576;28;20048;-61
2023/09/05 00:47:32;;;;;;;3.22;1.58;;;;;;;25.54;40.05;101628.06;5071648;28;20424;-63
2023/09/05 00:49:57;;;;;;;2.42;1.38;;;;;;;25.49;40.61;101627.81;5071544;28;20086;-62
2023/09/05 00:52:25;;;;;;;4.00;1.52;;;;;;;25.42;40.79;101624.19;5071731;28;20029;-61
2023/09/05 00:54:51;;;;;;;4.60;1.80;;;;;;;25.37;40.75;101632.22;5072088;28;20029;-62
2023/09/05 00:57:19;;;;;;;1.88;1.42;;;;;;;25.33;40.87;101628.16;5054986;28;20036;-61
2023/09/05 00:59:44;;;;;;;2.33;1.67;;;;;;;25.29;40.79;101629.66;5071538;28;20052;-62
2023/09/05 01:02:10;;;;;;;3.42;1.30;;;;;;;25.25;40.87;101626.47;5071366;28;20500;-62
2023/09/05 01:04:35;;;;;;;2.13;1.58;;;;;;;25.23;40.59;101627.72;5072797;28;20036;-62
2023/09/05 01:07:09;;;;;;;4.43;1.50;;;;;;;25.18;40.95;101630.25;5071470;28;20400;-62
2023/09/05 01:09:40;;;;;;;4.20;1.83;;;;;;;25.18;41.05;101635.72;5071478;28;20037;-61
2023/09/05 01:12:08;;;;;;;2.30;1.30;;;;;;;25.17;41.12;101626.66;5071371;28;20041;-61
2023/09/05 01:14:34;;;;;;;2.05;1.33;;;;;;;25.21;41.06;101627.09;5071298;28;20032;-62
2023/09/05 01:17:05;;;;;;;4.40;2.42;;;;;;;25.24;41.01;101626.66;5070992;28;20120;-62
2023/09/05 01:19:36;;;;;;;3.63;1.20;;;;;;;25.29;41.10;101635.13;5072659;28;20028;-62
2023/09/05 01:22:17;;;;;;;3.58;1.60;;;;;;;25.32;41.17;101626.50;5055421;28;20123;-61
2023/09/05 01:24:47;;;;;;;4.50;1.45;;;;;;;25.34;41.07;101627.13;5071421;28;20423;-62
2023/09/05 01:27:17;;;;;;;2.40;1.17;;;;;;;25.37;40.72;101622.09;5071586;28;20403;-62
2023/09/05 01:29:44;;;;;;;2.95;1.52;;;;;;;25.40;40.70;101616.16;5071179;28;20503;-62
2023/09/05 01:32:09;;;;;;;2.30;1.30;;;;;;;25.46;41.11;101620.00;5071073;28;20033;-62
2023/09/05 01:34:35;;;;;;;2.63;1.50;;;;;;;25.46;40.72;101620.00;5054609;28;20028;-62
2023/09/05 01:37:00;;;;;;;3.80;1.50;;;;;;;25.46;40.71;101620.00;5071272;28;20032;-62
2023/09/05 01:39:26;;;;;;;2.65;1.35;;;;;;;25.49;40.98;101614.09;5071105;28;20033;-62
2023/09/05 01:41:51;;;;;;;6.20;1.88;;;;;;;25.51;40.52;101613.91;5070969;28;20033;-62
2023/09/05 01:44:16;;;;;;;2.72;1.65;;;;;;;25.49;40.74;101613.28;5071051;28;20056;-60
2023/09/05 01:46:42;;;;;;;2.03;1.25;;;;;;;25.49;40.61;101613.28;5054611;28;20028;-61
2023/09/05 01:49:07;;;;;;;2.00;1.10;;;;;;;25.49;40.97;101613.28;5070836;28;20079;-62
2023/09/05 01:51:33;;;;;;;2.38;1.40;;;;;;;25.47;40.70;101605.25;5071101;28;20614;-61
2023/09/05 01:53:58;;;;;;;3.78;1.15;;;;;;;25.50;40.95;101604.81;5071232;28;20094;-62
2023/09/05 01:56:24;;;;;;;1.80;1.20;;;;;;;25.49;40.48;101608.63;5070879;28;20041;-62
2023/09/05 01:58:49;;;;;;;1.73;1.45;;;;;;;25.48;40.50;101606.94;5070954;28;20041;-62
2023/09/05 02:01:15;;;;;;;5.68;1.30;;;;;;;25.46;40.88;101609.03;5071022;28;20060;-61
2023/09/05 02:03:40;;;;;;;1.95;1.23;;;;;;;25.41;40.83;101606.88;5073696;28;20035;-61
2023/09/05 02:06:05;;;;;;;2.10;1.40;;;;;;;25.37;40.46;101615.75;5057909;28;20032;-62
2023/09/05 02:08:34;;;;;;;2.33;1.27;;;;;;;25.33;40.93;101617.19;5075835;28;20032;-62
2023/09/05 02:11:00;;;;;;;1.63;1.30;;;;;;;25.27;40.80;101615.28;5075722;28;20033;-61
2023/09/05 02:13:26;;;;;;;2.17;1.60;;;;;;;25.24;40.48;101619.28;5074502;28;20113;-62
2023/09/05 02:15:51;;;;;;;4.90;1.20;;;;;;;25.18;40.51;101617.34;5074135;28;20052;-62
2023/09/05 02:18:17;;;;;;;3.88;1.50;;;;;;;25.16;40.66;101618.63;5075727;28;20040;-61
2023/09/05 02:20:43;;;;;;;1.77;1.10;;;;;;;25.13;40.89;101616.28;5075579;28;20123;-61
2023/09/05 02:23:08;;;;;;;1.77;1.17;;;;;;;25.09;41.18;101606.78;5074230;28;20064;-61
2023/09/05 02:25:34;;;;;;;2.50;1.30;;;;;;;25.06;41.00;101608.03;5074395;28;20025;-61
2023/09/05 02:27:59;;;;;;;1.40;1.13;;;;;;;25.01;41.17;101612.44;5057627;28;20496;-61
2023/09/05 02:30:25;;;;;;;3.95;1.30;;;;;;;24.96;41.38;101612.22;5075384;28;20032;-62
2023/09/05 02:32:55;;;;;;;2.72;1.23;;;;;;;24.92;41.34;101610.94;5074193;28;20042;-64
2023/09/05 02:35:24;;;;;;;1.95;1.50;;;;;;;24.88;41.26;101614.06;5074101;28;20522;-63
2023/09/05 02:37:52;;;;;;;4.78;1.52;;;;;;;24.82;41.74;101620.38;5057521;28;20027;-63
2023/09/05 02:40:18;;;;;;;1.52;1.40;;;;;;;24.76;41.38;101626.63;5057675;28;20503;-63
2023/09/05 02:42:44;;;;;;;2.55;1.50;;;;;;;24.70;41.89;101624.72;5076736;28;20024;-63
2023/09/05 02:45:10;;;;;;;2.40;1.50;;;;;;;24.65;41.16;101632.66;5076449;28;20024;-63
2023/09/05 02:47:35;;;;;;;1.90;1.70;;;;;;;24.62;41.22;101640.47;5059251;28;20432;-63
2023/09/05 02:50:00;;;;;;;2.00;1.52;;;;;;;24.61;41.28;101627.81;5058970;28;20028;-63
2023/09/05 02:52:26;;;;;;;2.55;1.52;;;;;;;24.56;41.49;101622.94;5077646;28;20032;-63
2023/09/05 02:54:51;;;;;;;1.92;1.30;;;;;;;24.50;41.37;101618.25;5074261;28;20031;-63
2023/09/05 02:57:17;;;;;;;4.85;1.70;;;;;;;24.43;41.78;101611.88;5074171;28;20060;-63
2023/09/05 02:59:43;;;;;;;2.72;1.27;;;;;;;24.37;41.94;101620.91;5057348;28;20066;-63
2023/09/05 03:02:08;;;;;;;3.30;2.15;;;;;;;24.33;42.01;101622.34;5057066;28;20465;-63
2023/09/05 03:04:33;;;;;;;2.78;1.55;;;;;;;24.27;42.49;101615.78;5073599;28;20031;-62
2023/09/05 03:07:01;;;;;;;2.00;1.10;;;;;;;24.22;42.59;101614.69;5073454;28;20443;-63
2023/09/05 03:09:26;;;;;;;2.70;1.35;;;;;;;24.15;41.76;101613.75;5073469;28;20020;-63
2023/09/05 03:11:52;;;;;;;1.98;1.48;;;;;;;24.10;41.90;101621.75;5074635;28;20460;-63
2023/09/05 03:14:17;;;;;;;3.50;1.30;;;;;;;24.05;42.80;101624.19;5074547;28;20020;-63
2023/09/05 03:16:42;;;;;;;5.82;1.73;;;;;;;24.01;42.09;101622.91;5073242;28;20415;-64
2023/09/05 03:19:11;;;;;;;2.63;1.55;;;;;;;23.95;42.46;101624.56;5074576;28;20028;-64
2023/09/05 03:21:37;;;;;;;6.97;1.92;;;;;;;23.93;42.98;101631.22;5073289;28;20523;-64
2023/09/05 03:24:03;;;;;;;2.38;1.75;;;;;;;23.90;43.05;101628.91;5074469;28;20427;-64
2023/09/05 03:26:28;;;;;;;2.97;1.40;;;;;;;23.83;42.87;101620.63;5074342;28;20028;-63
2023/09/05 03:28:54;;;;;;;1.98;1.20;;;;;;;23.77;42.55;101619.53;5039984;28;20036;-63
2023/09/05 03:31:19;;;;;;;3.25;1.80;;;;;;;23.74;42.25;101622.66;5074311;28;20577;-64
2023/09/05 03:33:46;;;;;;;2.22;1.63;;;;;;;23.71;43.23;101622.19;5074500;28;20025;-63
2023/09/05 03:36:11;;;;;;;4.40;1.70;;;;;;;23.66;42.86;101619.22;5056660;28;20119;-63
2023/09/05 03:38:37;;;;;;;2.10;1.65;;;;;;;23.63;43.05;101625.06;5073256;28;20056;-64
2023/09/05 03:41:02;;;;;;;3.28;1.52;;;;;;;23.59;42.67;101621.88;5072596;28;20047;-63
2023/09/05 03:43:28;;;;;;;2.55;2.08;;;;;;;23.54;42.34;101621.59;5074547;28;20089;-63
2023/09/05 03:45:53;;;;;;;6.50;1.60;;;;;;;23.50;43.69;101625.78;5072826;28;20388;-62
2023/09/05 03:48:18;;;;;;;1.50;1.15;;;;;;;23.46;42.67;101629.94;5072831;28;20029;-62
2023/09/05 03:50:45;;;;;;;6.05;1.48;;;;;;;23.43;42.81;101626.72;5073829;28;20033;-62
2023/09/05 03:53:10;;;;;;;3.75;1.90;;;;;;;23.38;43.20;101631.94;5072778;28;20035;-62
2023/09/05 03:55:36;;;;;;;2.72;1.98;;;;;;;23.37;42.96;101631.06;5072697;28;20108;-62
2023/09/05 03:58:02;;;;;;;1.52;1.40;;;;;;;23.31;43.36;101620.06;5074205;28;20373;-62
2023/09/05 04:00:29;;;;;;;2.85;1.83;;;;;;;23.29;43.94;101625.72;5068393;28;20040;-62
2023/09/05 04:02:55;;;;;;;1.58;1.30;;;;;;;23.24;43.61;101628.19;5072674;28;20028;-62
2023/09/05 04:05:21;;;;;;;1.55;1.40;;;;;;;23.23;43.52;101634.69;5072939;28;20454;-63
2023/09/05 04:07:47;;;;;;;2.38;1.60;;;;;;;23.15;44.20;101629.31;5056139;28;20107;-62
2023/09/05 04:10:12;;;;;;;3.47;1.55;;;;;;;23.15;43.96;101623.84;5072548;28;20395;-62
2023/09/05 04:12:38;;;;;;;2.92;1.75;;;;;;;23.12;43.78;101627.81;5072585;28;20032;-62
2023/09/05 04:15:04;;;;;;;2.65;1.65;;;;;;;23.09;44.06;101621.88;5073841;28;20037;-62
2023/09/05 04:17:29;;;;;;;3.20;1.98;;;;;;;23.05;43.66;101626.91;5072825;28;20106;-62
2023/09/05 04:19:56;;;;;;;5.18;1.60;;;;;;;23.05;44.07;101634.25;5073646;28;20032;-61
2023/09/05 04:22:24;;;;;;;2.88;1.77;;;;;;;23.03;43.60;101633.59;5055591;28;20036;-62
2023/09/05 04:24:53;;;;;;;1.88;1.55;;;;;;;23.01;43.67;101619.25;5072152;28;20029;-62
2023/09/05 04:27:21;;;;;;;4.60;1.65;;;;;;;22.98;44.77;101622.38;5072035;28;20419;-62
2023/09/05 04:29:51;;;;;;;4.03;1.85;;;;;;;22.97;43.82;101629.75;5073553;28;20101;-62
2023/09/05 04:32:18;;;;;;;2.15;1.80;;;;;;;22.94;44.53;101618.34;5072205;28;20044;-62
2023/09/05 04:34:43;;;;;;;2.17;1.65;;;;;;;22.88;44.06;101613.63;5072380;28;20029;-62
2023/09/05 04:37:08;;;;;;;5.93;1.70;;;;;;;22.85;44.04;101614.00;5071944;28;20052;-62
2023/09/05 04:39:34;;;;;;;2.13;1.60;;;;;;;22.85;44.59;101619.47;5072061;28;20028;-62
2023/09/05 04:41:59;;;;;;;5.07;1.70;;;;;;;22.82;44.11;101620.72;5073767;28;20081;-62
2023/09/05 04:44:27;;;;;;;2.83;1.90;;;;;;;22.81;44.64;101623.63;5073571;28;20400;-62
2023/09/05 04:46:52;;;;;;;4.85;1.52;;;;;;;22.81;44.83;101623.63;5073420;28;20170;-62
2023/09/05 04:49:17;;;;;;;4.90;2.17;;;;;;;22.79;44.11;101626.53;5072557;28;20558;-61
2023/09/05 04:51:43;;;;;;;4.43;2.00;;;;;;;22.78;44.08;101633.03;5039979;28;20512;-62
2023/09/05 04:54:08;;;;;;;4.55;1.52;;;;;;;22.75;44.11;101627.13;5074351;28;20051;-62
2023/09/05 04:56:34;;;;;;;2.78;1.73;;;;;;;22.73;44.44;101643.69;5074237;28;20041;-62
2023/09/05 04:58:59;;;;;;;6.63;1.70;;;;;;;22.71;44.56;101629.38;5072406;28;20043;-62
2023/09/05 05:01:25;;;;;;;2.65;1.55;;;;;;;22.70;44.54;101632.31;5055836;28;20500;-62
2023/09/05 05:03:50;;;;;;;2.60;1.65;;;;;;;22.68;44.13;101637.09;5055736;28;20032;-62
2023/09/05 05:06:16;;;;;;;4.35;2.28;;;;;;;22.62;44.55;101631.31;5072021;28;20078;-62
2023/09/05 05:08:41;;;;;;;4.50;2.42;;;;;;;22.60;44.83;101633.41;5071890;28;20033;-61
2023/09/05 05:11:06;;;;;;;8.43;2.95;;;;;;;22.61;44.32;101640.53;5073039;28;20032;-62
2023/09/05 05:13:33;;;;;;;3.03;2.65;;;;;;;22.59;45.52;101637.16;5071804;28;20500;-61
2023/09/05 05:15:59;;;;;;;3.30;1.52;;;;;;;22.60;45.16;101633.41;5071537;28;20115;-62
2023/09/05 05:18:24;;;;;;;2.95;1.77;;;;;;;22.61;45.10;101640.53;5072639;28;20039;-62
2023/09/05 05:20:49;;;;;;;4.25;2.50;;;;;;;22.66;45.40;101641.91;5054434;28;20071;-62
2023/09/05 05:23:15;;;;;;;3.08;1.63;;;;;;;22.69;45.26;101642.38;5071568;28;20036;-62
2023/09/05 05:25:40;;;;;;;9.80;2.00;;;;;;;22.75;44.89;101643.50;5071829;28;20056;-62
2023/09/05 05:28:05;;;;;;;4.80;1.73;;;;;;;22.78;44.73;101634.94;5071422;28;20404;-62
2023/09/05 05:30:36;;;;;;;6.45;1.80;;;;;;;22.85;45.40;101641.34;5071493;28;20032;-62
2023/09/05 05:33:01;;;;;;;3.83;2.05;;;;;;;22.93;44.52;101633.03;5071552;28;20033;-62
2023/09/05 05:35:27;;;;;;;6.35;2.10;;;;;;;23.01;44.76;101638.38;5071508;28;20043;-62
2023/09/05 05:37:52;;;;;;;6.18;2.30;;;;;;;23.12;44.61;101635.16;5071944;28;20028;-62
2023/09/05 05:40:18;;;;;;;3.63;1.95;;;;;;;23.29;44.98;101633.06;5075654;28;20025;-62
2023/09/05 05:42:43;;;;;;;3.63;2.28;;;;;;;23.45;44.42;101628.22;5075141;28;20059;-62
2023/09/05 05:45:10;;;;;;;5.28;1.70;;;;;;;23.62;44.53;101634.31;5075481;28;20040;-62
2023/09/05 05:47:35;;;;;;;7.85;2.05;;;;;;;23.81;44.46;101627.34;5075340;28;20036;-62
2023/09/05 05:50:01;;;;;;;3.78;1.85;;;;;;;23.98;44.25;101640.56;5058386;28;20033;-62
2023/09/05 05:52:26;;;;;;;7.35;2.15;;;;;;;24.17;44.36;101628.97;5074826;28;20119;-63
2023/09/05 05:54:51;;;;;;;4.20;1.65;;;;;;;24.35;44.18;101633.94;5075068;28;20107;-61
2023/09/05 05:57:17;;;;;;;3.42;1.90;;;;;;;24.54;43.93;101646.94;5075040;28;20059;-61
2023/09/05 05:59:42;;;;;;;6.15;2.42;;;;;;;24.74;43.73;101642.44;5075885;28;20044;-62
2023/09/05 06:02:08;;;;;;;2.63;1.63;;;;;;;24.99;43.97;101641.94;5076128;28;20044;-63
2023/09/05 06:04:33;;;;;;;3.88;1.90;;;;;;;25.19;43.64;101640.16;5074570;28;20033;-61
2023/09/05 06:06:59;;;;;;;4.97;2.25;;;;;;;25.49;43.41;101641.53;5076028;28;20033;-61
2023/09/05 06:09:24;;;;;;;5.15;1.88;;;;;;;25.70;43.28;101633.16;5075937;28;20115;-61
2023/09/05 06:11:49;;;;;;;2.72;1.42;;;;;;;25.93;42.73;101639.13;5074526;28;20076;-63
2023/09/05 06:14:15;;;;;;;2.58;1.95;;;;;;;26.15;42.76;101647.19;5076103;28;20032;-62
2023/09/05 06:16:41;;;;;;;2.38;1.77;;;;;;;26.34;42.83;101640.81;5074720;28;20040;-61
2023/09/05 06:19:08;;;;;;;4.07;1.98;;;;;;;26.54;42.67;101644.41;5075016;28;20116;-62
2023/09/05 06:21:34;;;;;;;3.65;1.70;;;;;;;26.71;41.94;101642.88;5075338;28;20119;-62
2023/09/05 06:23:59;;;;;;;3.90;2.17;;;;;;;26.87;42.27;101642.44;5075174;28;20112;-61
2023/09/05 06:26:25;;;;;;;3.58;1.95;;;;;;;27.05;41.96;101644.50;5075790;28;20025;-62
2023/09/05 06:28:51;;;;;;;2.45;1.52;;;;;;;27.24;42.10;101642.75;5075634;28;20499;-62
2023/09/05 06:31:17;;;;;;;2.70;2.08;;;;;;;27.43;41.83;101647.31;5075449;28;20032;-62
2023/09/05 06:33:42;;;;;;;2.75;2.00;;;;;;;27.57;41.94;101629.66;5075382;28;20082;-61
2023/09/05 06:36:09;;;;;;;2.88;1.55;;;;;;;27.70;41.64;101637.84;5075318;28;20028;-62
2023/09/05 06:38:35;;;;;;;2.90;1.75;;;;;;;27.88;41.49;101637.94;5057387;28;20060;-62
2023/09/05 06:41:08;;;;;;;3.90;1.60;;;;;;;28.04;41.41;101626.41;5074264;28;20032;-62
2023/09/05 06:43:33;;;;;;;;;;;;;;;28.23;40.36;101630.88;5074622;28;20036;-62
2023/09/05 06:46:03;;;;;;;5.28;1.50;;;;;;;28.40;40.57;101633.06;5074138;28;20299;-62
2023/09/05 06:48:29;;;;;;;2.50;1.38;;;;;;;28.56;40.12;101632.50;5056731;28;20036;-62
2023/09/05 06:50:56;;;;;;;2.75;1.55;;;;;;;28.73;40.25;101630.84;5057291;28;20032;-62
2023/09/05 06:53:22;;;;;;;7.93;1.50;;;;;;;28.89;40.21;101619.22;5073808;28;20032;-63
2023/09/05 06:55:48;;;;;;;2.88;1.60;;;;;;;29.08;39.93;101629.16;5075050;28;20035;-63
2023/09/05 06:58:14;;;;;;;2.97;1.67;;;;;;;29.27;39.47;101630.00;5074997;28;20052;-62
2023/09/05 07:00:39;;;;;;;4.00;1.55;;;;;;;29.45;39.88;101627.22;5073759;28;20047;-62
2023/09/05 07:03:05;;;;;;;2.95;1.45;;;;;;;29.64;39.35;101619.72;5075014;28;20032;-62
2023/09/05 07:05:30;;;;;;;9.20;1.83;;;;;;;29.83;39.50;101618.59;5073633;28;20067;-62
2023/09/05 07:07:56;;;;;;;4.43;1.38;;;;;;;29.99;38.99;101618.75;5073536;28;20082;-63
2023/09/05 07:10:21;;;;;;;1.50;1.20;;;;;;;30.14;38.98;101618.28;5074682;28;20025;-62
2023/09/05 07:12:46;;;;;;;2.28;1.50;;;;;;;30.34;38.76;101616.03;5074585;28;20063;-62
2023/09/05 07:15:12;;;;;;;1.40;1.25;;;;;;;30.51;38.93;101627.25;5074918;28;20502;-62
2023/09/05 07:17:37;;;;;;;3.28;1.33;;;;;;;30.64;38.52;101620.59;5072807;28;20188;-63
2023/09/05 07:20:03;;;;;;;5.70;2.40;;;;;;;30.82;38.34;101628.78;5074126;28;20040;-63
2023/09/05 07:22:28;;;;;;;1.83;1.38;;;;;;;30.96;38.41;101631.03;5074503;28;20039;-62
2023/09/05 07:24:53;;;;;;;1.58;1.33;;;;;;;31.16;38.32;101624.28;5056361;28;20115;-63
2023/09/05 07:27:20;;;;;;;4.03;1.65;;;;;;;31.37;37.77;101627.19;5073092;28;20043;-63
2023/09/05 07:29:45;;;;;;;3.92;1.88;;;;;;;31.53;37.47;101620.88;5072973;28;20044;-62
2023/09/05 07:32:11;;;;;;;3.83;1.13;;;;;;;31.71;37.42;101617.88;5074339;28;20036;-62
2023/09/05 07:34:37;;;;;;;4.97;1.67;;;;;;;31.95;37.02;101617.75;5073066;28;20032;-62
2023/09/05 07:37:03;;;;;;;5.43;1.58;;;;;;;32.12;36.80;101613.09;5072790;28;20062;-63
2023/09/05 07:39:28;;;;;;;1.95;1.75;;;;;;;32.39;37.55;101613.22;5074292;28;20032;-63
2023/09/05 07:41:54;;;;;;;2.65;1.90;;;;;;;32.61;36.38;101606.66;5074177;28;20035;-64
2023/09/05 07:44:19;;;;;;;4.47;1.70;;;;;;;32.89;36.09;101607.59;5072849;28;20090;-63
2023/09/05 07:46:45;;;;;;;5.28;1.38;;;;;;;33.12;35.76;101608.19;5074083;28;20401;-63
2023/09/05 07:49:10;;;;;;;6.40;1.88;;;;;;;33.39;35.91;101608.25;5072586;28;20071;-63
2023/09/05 07:51:35;;;;;;;2.70;1.55;;;;;;;33.64;35.18;101611.28;5074225;28;20036;-62
2023/09/05 07:54:06;;;;;;;3.50;1.67;;;;;;;33.86;35.14;101606.53;5055850;28;20464;-62
2023/09/05 07:56:33;;;;;;;3.35;1.40;;;;;;;34.04;34.81;101604.41;5056228;28;20039;-62
2023/09/05 07:58:58;;;;;;;1.50;1.20;;;;;;;34.22;34.21;101606.84;5072465;28;20032;-63
2023/09/05 08:01:25;;;;;;;5.90;1.70;;;;;;;34.41;34.87;101594.16;5071628;28;20029;-62
2023/09/05 08:03:51;;;;;;;1.33;1.05;;;;;;;34.63;34.97;101597.66;5072419;28;20044;-61
2023/09/05 08:06:16;;;;;;;1.17;1.10;;;;;;;34.80;34.33;101597.47;5072366;28;20408;-62
2023/09/05 08:08:42;;;;;;;2.67;1.35;;;;;;;34.92;33.56;101595.31;5073457;28;20036;-62
2023/09/05 08:11:07;;;;;;;5.18;1.42;;;;;;;35.01;33.99;101599.25;5073465;28;20036;-62
2023/09/05 08:13:33;;;;;;;1.40;1.30;;;;;;;35.13;33.90;101607.38;5073488;28;20063;-62
2023/09/05 08:15:58;;;;;;;2.17;1.23;;;;;;;35.24;34.14;101609.09;5073005;28;20618;-62
2023/09/05 08:18:24;;;;;;;2.10;1.33;;;;;;;35.31;32.83;101609.69;5072377;28;20565;-63
2023/09/05 08:20:49;;;;;;;1.73;1.20;;;;;;;35.35;32.99;101606.06;5073005;28;20043;-62
2023/09/05 08:23:15;;;;;;;1.50;1.35;;;;;;;35.41;33.15;101612.47;5072265;28;20038;-62
2023/09/05 08:25:40;;;;;;;6.05;1.15;;;;;;;35.51;32.57;101604.16;5073359;28;20052;-62
2023/09/05 08:28:06;;;;;;;3.15;1.25;;;;;;;35.58;32.83;101604.75;5071911;28;20037;-62
2023/09/05 08:30:31;;;;;;;5.90;1.23;;;;;;;35.64;32.55;101609.22;5071929;28;20032;-62
2023/09/05 08:33:01;;;;;;;1.50;1.20;;;;;;;35.76;32.44;101607.03;5073153;28;20036;-62
2023/09/05 08:35:26;;;;;;;5.15;1.27;;;;;;;35.92;32.18;101614.28;5072790;28;20041;-62
2023/09/05 08:37:52;;;;;;;4.25;1.38;;;;;;;36.08;32.29;101615.97;5072084;28;20024;-62
2023/09/05 08:40:19;;;;;;;2.22;1.55;;;;;;;36.22;32.09;101610.66;5071988;28;20098;-62
2023/09/05 08:42:47;;;;;;;2.85;1.20;;;;;;;36.26;32.01;101605.34;5071981;28;20029;-62
2023/09/05 08:45:15;;;;;;;2.10;1.40;;;;;;;36.35;31.51;101603.69;5072189;28;20012;-63
2023/09/05 08:47:41;;;;;;;1.70;1.20;;;;;;;36.51;31.67;101599.75;5072009;28;20013;-62
2023/09/05 08:50:08;;;;;;;2.10;1.67;;;;;;;36.62;32.05;101602.25;5072954;28;20016;-62
2023/09/05 08:52:37;;;;;;;3.53;1.40;;;;;;;36.77;31.36;101606.91;5055254;28;20077;-62
2023/09/05 08:55:02;;;;;;;2.03;1.30;;;;;;;36.86;31.17;101605.22;5071637;28;20415;-62
2023/09/05 08:57:29;;;;;;;6.05;1.25;;;;;;;36.98;31.14;101602.13;5071210;28;20032;-62
2023/09/05 08:59:55;;;;;;;4.45;1.77;;;;;;;37.05;30.96;101597.91;5071676;28;20032;-62
2023/09/05 09:02:20;;;;;;;2.55;1.00;;;;;;;37.12;30.90;101598.44;5054858;28;20029;-62
2023/09/05 09:04:53;;;;;;;1.98;1.42;;;;;;;37.19;30.56;101587.75;5054862;28;20506;-62
2023/09/05 09:07:18;;;;;;;4.03;1.10;;;;;;;37.20;30.41;101583.84;5055357;28;20047;-62
2023/09/05 09:09:45;;;;;;;4.28;1.52;;;;;;;37.26;30.95;101587.47;5054746;28;20032;-62
2023/09/05 09:12:11;;;;;;;1.80;1.48;;;;;;;37.34;30.80;101589.66;5072526;28;20044;-62
2023/09/05 09:14:36;;;;;;;2.40;1.50;;;;;;;37.43;30.08;101581.50;5054514;28;20127;-63
2023/09/05 09:17:04;;;;;;;1.95;1.25;;;;;;;37.54;30.52;101583.94;5054287;28;20102;-62
2023/09/05 09:19:30;;;;;;;5.65;1.48;;;;;;;37.68;30.40;101581.31;5072732;28;20024;-62
2023/09/05 09:21:59;;;;;;;3.92;1.13;;;;;;;37.81;30.39;101583.44;5071400;28;20025;-64
2023/09/05 09:24:30;;;;;;;5.78;1.50;;;;;;;37.92;30.02;101579.47;5071207;28;20496;-64
2023/09/05 09:26:56;;;;;;;1.98;1.20;;;;;;;38.08;30.16;101586.59;5071320;28;20503;-62
2023/09/05 09:29:21;;;;;;;2.22;1.10;;;;;;;38.21;29.43;101585.94;5071219;28;20024;-64
2023/09/05 09:31:47;;;;;;;1.88;1.13;;;;;;;38.26;29.40;101588.66;5071284;28;20030;-63
2023/09/05 09:34:18;;;;;;;1.63;1.35;;;;;;;38.39;29.98;101595.56;5071220;28;20098;-63
2023/09/05 09:36:50;;;;;;;0.88;0.85;;;;;;;38.55;29.88;101585.88;5070966;28;20577;-64
2023/09/05 09:39:17;;;;;;;2.08;1.27;;;;;;;38.89;28.96;101583.78;5071200;28;20544;-62
2023/09/05 09:41:46;;;;;;;2.03;1.60;;;;;;;39.46;28.90;101593.13;5071205;28;20434;-64
2023/09/05 09:44:26;;;;;;;1.75;1.65;;;;;;;40.32;28.26;101584.13;5071265;28;20396;-63
2023/09/05 09:46:53;;;;;;;2.17;1.25;;;;;;;41.70;27.32;101581.72;5071220;28;20025;-62
2023/09/05 09:49:19;;;;;;;3.20;1.25;;;;;;;44.18;25.08;101594.13;5072202;28;20496;-62
2023/09/05 09:51:47;;;;;;;3.88;1.60;;;;;;;44.31;24.28;101585.44;5054415;28;20039;-63
2023/09/05 09:54:13;;;;;;;3.08;1.40;;;;;;;43.53;25.95;101572.56;5070509;28;20028;-63
2023/09/05 09:56:41;;;;;;;2.42;1.00;;;;;;;43.16;26.25;101578.84;5054093;28;20036;-63
2023/09/05 09:59:08;;;;;;;4.57;1.23;;;;;;;42.86;26.63;101574.94;5072237;28;20449;-64
2023/09/05 10:01:33;;;;;;;1.50;1.20;;;;;;;42.73;26.47;101582.38;5070948;28;20110;-63
2023/09/05 10:03:59;;;;;;;2.42;1.55;;;;;;;42.67;26.55;101585.66;5054238;28;20072;-63
2023/09/05 10:06:24;;;;;;;4.55;1.20;;;;;;;42.72;26.25;101591.13;5070758;28;20025;-62
2023/09/05 10:08:50;;;;;;;3.85;0.90;;;;;;;42.79;26.17;101581.06;5070663;28;20055;-63
2023/09/05 10:11:16;;;;;;;2.85;1.40;;;;;;;42.93;26.08;101569.66;5071054;28;20063;-62
2023/09/05 10:13:42;;;;;;;3.40;1.30;;;;;;;43.13;25.64;101574.69;5070912;28;20086;-63
2023/09/05 10:16:08;;;;;;;1.58;1.30;;;;;;;43.33;25.95;101576.03;5070625;28;20041;-63
2023/09/05 10:18:38;;;;;;;2.47;1.55;;;;;;;43.62;25.37;101576.22;5070917;28;20040;-62
2023/09/05 10:21:04;;;;;;;2.00;1.00;;;;;;;43.89;25.44;101575.06;5070885;28;20090;-63
2023/09/05 10:23:31;;;;;;;1.40;1.30;;;;;;;44.06;25.29;101568.56;5072788;28;20032;-62
2023/09/05 10:25:58;;;;;;;4.32;1.50;;;;;;;44.24;25.21;101565.34;5057528;28;20112;-63
2023/09/05 10:28:29;;;;;;;3.92;1.27;;;;;;;44.33;24.81;101556.84;5073346;28;20068;-63
2023/09/05 10:31:15;;;;;;;3.53;1.20;;;;;;;44.45;25.05;101554.94;5074191;28;20051;-63
2023/09/05 10:33:45;;;;;;;4.05;1.38;;;;;;;44.59;25.00;101552.75;5058575;28;20028;-62
2023/09/05 10:36:40;;;;;;;4.03;1.27;;;;;;;44.77;24.32;101567.63;5078716;28;20028;-62
2023/09/05 10:39:25;;;;;;;3.17;1.20;;;;;;;44.92;24.24;101546.44;5078977;28;20373;-62
2023/09/05 10:41:51;;;;;;;6.03;1.48;;;;;;;45.19;24.59;101556.38;5079697;28;20088;-63
2023/09/05 10:44:16;;;;;;;2.90;1.13;;;;;;;45.40;23.95;101554.44;5062381;28;20036;-62
2023/09/05 10:46:42;;;;;;;3.60;1.20;;;;;;;45.57;23.86;101555.09;5078366;28;20035;-62
2023/09/05 10:49:14;;;;;;;3.75;1.10;;;;;;;45.76;23.73;101556.63;5076853;28;20051;-62
2023/09/05 10:52:20;;;;;;;4.65;1.67;;;;;;;45.97;23.21;101560.19;5082377;28;20051;-63
2023/09/05 10:54:45;;;;;;;14.00;2.88;;;;;;;45.95;23.59;101563.41;5074435;28;20031;-62
2023/09/05 10:57:34;;;;;;;3.28;1.20;;;;;;;45.84;23.11;101553.69;5057118;28;20033;-62
2023/09/05 10:59:59;;;;;;;2.95;1.45;;;;;;;45.79;23.13;101556.72;5057306;28;20400;-62
2023/09/05 11:02:25;;;;;;;584.00;125.35;;;;;;;45.77;22.98;101552.59;5074884;28;20025;-65
2023/09/05 11:04:53;;;;;;;10.20;2.92;;;;;;;45.82;22.81;101553.19;5074989;28;20036;-65
2023/09/05 11:07:21;;;;;;;2.55;1.08;;;;;;;45.86;23.17;101550.50;5073837;28;20045;-62
2023/09/05 11:09:54;;;;;;;1.40;1.30;;;;;;;45.98;22.88;101550.53;5074981;28;20029;-62
2023/09/05 11:12:20;;;;;;;1.85;1.38;;;;;;;46.10;23.04;101548.56;5075100;28;20496;-63
2023/09/05 11:14:45;;;;;;;3.03;1.23;;;;;;;46.09;23.04;101548.94;5073779;28;20091;-63
2023/09/05 11:17:12;;;;;;;1.35;1.13;;;;;;;46.18;22.93;101544.81;5073427;28;20041;-63
2023/09/05 11:19:42;;;;;;;3.50;1.80;;;;;;;46.22;22.88;101544.94;5073812;28;20033;-62
2023/09/05 11:22:22;;;;;;;3.90;1.33;;;;;;;46.25;22.66;101538.56;5056739;28;20025;-63